createdAt,value
2022-11-27T00:02:29.707Z,7.78
2022-11-27T00:08:51.002Z,7.59
2022-11-27T00:11:22.845Z,7.71
2022-11-27T00:19:27.710Z,7.59
2022-11-27T00:21:54.267Z,7.66
2022-11-27T01:16:48.048Z,7.21
2022-11-27T01:19:15.340Z,7.34
2022-11-27T01:21:42.269Z,7.21
2022-11-27T01:24:12.097Z,6.95
2022-11-27T01:26:38.702Z,7.06
2022-11-27T01:29:48.686Z,7.07
2022-11-27T01:33:27.817Z,6.85
2022-11-27T01:36:00.523Z,6.57
2022-11-27T01:38:28.947Z,6.22
2022-11-27T01:41:13.483Z,6.35
2022-11-27T01:43:49.562Z,6.41
2022-11-27T01:52:15.339Z,6.51
2022-11-27T02:00:08.303Z,6.55
2022-11-27T02:49:02.198Z,7.07
2022-11-27T02:51:37.310Z,7.13
2022-11-27T02:56:40.887Z,7.03
2022-11-27T02:59:11.514Z,7.05
2022-11-27T03:01:50.809Z,7.05
2022-11-27T04:22:02.578Z,6.80
2022-11-27T04:24:29.556Z,6.83
2022-11-27T04:27:30.079Z,6.90
2022-11-27T04:29:56.685Z,6.92
2022-11-27T05:36:33.151Z,6.75
2022-11-27T05:39:01.616Z,6.76
2022-11-27T05:45:26.278Z,6.73
2022-11-27T05:47:57.434Z,6.73
2022-11-27T05:50:24.399Z,6.75
2022-11-27T05:52:51.017Z,6.84
2022-11-27T05:55:17.575Z,6.85
2022-11-27T05:57:44.147Z,6.92
2022-11-27T06:00:44.535Z,6.90
2022-11-27T06:03:11.152Z,6.85
2022-11-27T06:05:42.822Z,6.93
2022-11-27T06:08:09.382Z,7.09
2022-11-27T06:14:59.209Z,7.10
2022-11-27T06:17:25.866Z,6.91
2022-11-27T06:19:52.442Z,6.46
2022-11-27T06:22:18.961Z,6.89
2022-11-27T06:24:45.571Z,7.01
2022-11-27T06:27:14.423Z,7.19
2022-11-27T06:30:12.471Z,7.35
2022-11-27T06:32:39.052Z,7.44
2022-11-27T06:35:06.198Z,7.47
2022-11-27T06:37:32.940Z,7.54
2022-11-27T06:44:29.231Z,7.53
2022-11-27T06:46:55.834Z,7.46
2022-11-27T06:49:22.407Z,7.58
2022-11-27T06:51:49.770Z,7.50
2022-11-27T06:54:16.754Z,7.55
2022-11-27T06:56:43.441Z,7.67
2022-11-27T07:21:21.793Z,7.83
2022-11-27T07:23:48.345Z,7.78
2022-11-27T07:26:20.120Z,7.37
2022-11-27T07:28:47.457Z,7.63
2022-11-27T07:31:16.860Z,7.70
2022-11-27T07:33:43.801Z,7.89
2022-11-27T07:36:21.990Z,8.00
2022-11-27T07:38:49.307Z,8.11
2022-11-27T07:41:16.356Z,8.13
2022-11-27T07:43:44.137Z,8.14
2022-11-27T07:46:13.535Z,8.23
2022-11-27T07:48:40.175Z,8.30
2022-11-27T07:51:08.231Z,8.37
2022-11-27T07:53:39.643Z,8.42
2022-11-27T07:56:12.051Z,8.31
2022-11-27T07:58:38.627Z,8.21
2022-11-27T08:01:14.246Z,8.23
2022-11-27T08:03:44.163Z,8.17
2022-11-27T08:06:29.058Z,8.00
2022-11-27T08:08:58.720Z,7.80
2022-11-27T08:11:29.641Z,8.03
2022-11-27T08:13:58.759Z,8.30
2022-11-27T08:16:25.868Z,8.49
2022-11-27T08:18:52.826Z,8.59
2022-11-27T08:21:20.003Z,8.55
2022-11-27T08:23:46.635Z,8.61
2022-11-27T08:26:14.138Z,8.62
2022-11-27T08:28:41.450Z,8.56
2022-11-27T08:31:10.868Z,8.41
2022-11-27T08:33:37.943Z,8.63
2022-11-27T08:36:06.024Z,8.67
2022-11-27T08:38:33.962Z,8.67
2022-11-27T08:41:02.800Z,8.62
2022-11-27T08:43:30.654Z,8.56
2022-11-27T08:45:57.776Z,8.47
2022-11-27T08:48:24.841Z,8.48
2022-11-27T08:50:53.502Z,8.50
2022-11-27T08:53:20.085Z,8.70
2022-11-27T08:55:47.416Z,8.82
2022-11-27T08:58:14.049Z,8.91
2022-11-27T09:00:40.698Z,8.77
2022-11-27T09:03:07.347Z,8.61
2022-11-27T09:05:34.031Z,8.58
2022-11-27T09:08:02.517Z,8.31
2022-11-27T09:10:29.272Z,8.46
2022-11-27T09:12:56.484Z,8.95
2022-11-27T09:15:23.239Z,8.84
2022-11-27T09:17:50.089Z,9.22
2022-11-27T09:20:16.719Z,9.21
2022-11-27T09:22:43.525Z,9.31
2022-11-27T09:25:10.199Z,9.40
2022-11-27T09:27:38.039Z,9.36
2022-11-27T09:30:07.485Z,9.11
2022-11-27T09:32:34.388Z,8.81
2022-11-27T09:35:00.999Z,8.90
2022-11-27T09:37:27.705Z,9.20
2022-11-27T09:39:55.215Z,9.27
2022-11-27T09:43:09.778Z,8.71
2022-11-27T09:45:45.178Z,9.12
2022-11-27T09:48:19.001Z,9.25
2022-11-27T09:50:51.805Z,9.12
2022-11-27T09:53:32.857Z,8.63
2022-11-27T09:56:04.329Z,8.63
2022-11-27T09:58:42.499Z,9.14
2022-11-27T10:01:30.980Z,9.09
2022-11-27T10:04:03.008Z,9.03
2022-11-27T10:06:58.652Z,9.05
2022-11-27T10:09:41.557Z,9.37
2022-11-27T10:12:13.755Z,8.94
2022-11-27T10:15:03.571Z,8.84
2022-11-27T10:17:42.644Z,8.84
2022-11-27T10:20:35.063Z,9.31
2022-11-27T10:23:18.375Z,9.38
2022-11-27T10:25:45.081Z,9.36
2022-11-27T10:28:42.481Z,9.52
2022-11-27T10:31:46.760Z,9.70
2022-11-27T10:34:34.613Z,9.64
2022-11-27T10:37:05.938Z,9.65
2022-11-27T10:39:43.687Z,9.62
2022-11-27T10:42:30.817Z,9.37
2022-11-27T10:45:04.529Z,9.27
2022-11-27T10:47:33.923Z,9.38
2022-11-27T10:50:01.130Z,9.20
2022-11-27T10:52:28.048Z,9.39
2022-11-27T10:55:01.637Z,9.39
2022-11-27T10:57:47.894Z,9.47
2022-11-27T11:00:23.477Z,9.52
2022-11-27T11:03:00.366Z,9.47
2022-11-27T11:05:41.449Z,9.61
2022-11-27T11:08:19.146Z,8.96
2022-11-27T11:10:51.660Z,9.25
2022-11-27T11:13:33.178Z,9.36
2022-11-27T11:16:04.002Z,9.12
2022-11-27T11:18:33.741Z,9.13
2022-11-27T11:21:03.149Z,9.34
2022-11-27T11:23:35.734Z,9.60
2022-11-27T11:26:24.614Z,9.53
2022-11-27T11:28:54.544Z,9.36
2022-11-27T11:31:27.877Z,9.01
2022-11-27T11:34:03.884Z,8.98
2022-11-27T11:36:30.957Z,9.00
2022-11-27T11:38:57.972Z,9.29
2022-11-27T11:41:24.923Z,8.93
2022-11-27T11:43:58.530Z,8.30
2022-11-27T11:46:29.778Z,8.80
2022-11-27T11:49:15.968Z,9.21
2022-11-27T11:52:00.594Z,8.33
2022-11-27T11:54:49.538Z,8.89
2022-11-27T11:57:41.890Z,8.51
2022-11-27T12:00:11.439Z,8.60
2022-11-27T12:03:32.446Z,9.30
2022-11-27T12:06:17.370Z,9.22
2022-11-27T12:09:00.446Z,8.19
2022-11-27T12:11:54.217Z,8.68
2022-11-27T12:14:32.697Z,9.35
2022-11-27T12:17:05.624Z,9.66
2022-11-27T12:19:32.131Z,9.04
2022-11-27T12:22:20.646Z,9.22
2022-11-27T12:25:25.348Z,9.69
2022-11-27T12:28:15.964Z,9.83
2022-11-27T12:30:57.341Z,8.81
2022-11-27T12:33:27.062Z,8.33
2022-11-27T12:36:28.891Z,8.61
2022-11-27T12:39:09.965Z,8.85
2022-11-27T12:41:57.843Z,9.51
2022-11-27T12:44:35.459Z,9.44
2022-11-27T12:47:16.110Z,9.60
2022-11-27T12:49:50.502Z,8.31
2022-11-27T12:52:54.434Z,8.82
2022-11-27T12:55:27.478Z,9.22
2022-11-27T12:57:56.945Z,8.91
2022-11-27T13:00:27.061Z,9.41
2022-11-27T13:03:02.885Z,8.58
2022-11-27T13:05:37.402Z,8.79
2022-11-27T13:08:18.540Z,8.20
2022-11-27T13:10:52.378Z,8.21
2022-11-27T13:13:34.159Z,8.44
2022-11-27T13:16:11.174Z,8.12
2022-11-27T13:18:48.980Z,8.29
2022-11-27T13:21:22.782Z,8.50
2022-11-27T13:23:55.339Z,8.52
2022-11-27T13:26:38.469Z,8.01
2022-11-27T13:29:43.887Z,8.11
2022-11-27T13:32:30.610Z,8.69
2022-11-27T13:35:02.559Z,8.81
2022-11-27T13:37:36.983Z,9.04
2022-11-27T13:40:04.231Z,8.57
2022-11-27T13:42:33.995Z,8.57
2022-11-27T13:45:11.393Z,8.81
2022-11-27T13:47:43.618Z,8.33
2022-11-27T13:50:16.486Z,8.78
2022-11-27T13:53:04.202Z,8.73
2022-11-27T13:55:34.369Z,8.36
2022-11-27T13:58:02.759Z,8.29
2022-11-27T14:00:37.720Z,8.03
2022-11-27T14:03:05.921Z,8.24
2022-11-27T14:05:44.307Z,8.33
2022-11-27T14:08:25.312Z,8.46
2022-11-27T14:11:03.479Z,8.42
2022-11-27T14:13:41.334Z,8.36
2022-11-27T14:16:26.657Z,8.14
2022-11-27T14:18:56.632Z,7.33
2022-11-27T14:21:47.317Z,8.11
2022-11-27T14:24:25.015Z,7.17
2022-11-27T14:26:53.796Z,8.04
2022-11-27T14:29:21.687Z,8.09
2022-11-27T14:31:59.701Z,8.17
2022-11-27T14:34:28.590Z,8.24
2022-11-27T14:36:55.810Z,8.32
2022-11-27T14:39:24.949Z,8.11
2022-11-27T14:41:59.030Z,8.04
2022-11-27T14:44:25.891Z,8.39
2022-11-27T14:46:53.108Z,8.32
2022-11-27T14:49:21.733Z,8.55
2022-11-27T14:51:51.201Z,8.48
2022-11-27T14:54:25.570Z,8.51
2022-11-27T14:56:53.128Z,8.13
2022-11-27T14:59:22.555Z,7.95
2022-11-27T15:02:03.794Z,8.00
2022-11-27T15:04:37.115Z,8.10
2022-11-27T15:07:18.241Z,8.21
2022-11-27T15:09:50.618Z,7.96
2022-11-27T15:12:21.896Z,8.02
2022-11-27T15:15:14.567Z,8.06
2022-11-27T15:17:48.158Z,7.96
2022-11-27T15:20:21.702Z,8.18
2022-11-27T15:22:56.362Z,8.37
2022-11-27T15:25:51.757Z,8.25
2022-11-27T15:28:36.052Z,7.97
2022-11-27T15:31:22.951Z,8.12
2022-11-27T15:33:58.845Z,8.21
2022-11-27T15:36:25.941Z,8.18
2022-11-27T15:38:52.937Z,8.15
2022-11-27T15:41:24.852Z,8.30
2022-11-27T15:43:52.320Z,8.17
2022-11-27T15:46:30.280Z,8.30
2022-11-27T15:48:57.151Z,8.49
2022-11-27T15:51:24.144Z,8.53
2022-11-27T15:53:50.745Z,8.09
2022-11-27T15:56:17.643Z,8.13
2022-11-27T15:58:44.486Z,8.10
2022-11-27T16:01:11.696Z,7.94
2022-11-27T16:03:40.036Z,8.17
2022-11-27T16:06:08.532Z,8.54
2022-11-27T16:08:35.557Z,8.15
2022-11-27T16:11:05.059Z,8.33
2022-11-27T16:13:31.691Z,8.24
2022-11-27T16:16:06.900Z,8.27
2022-11-27T16:18:34.618Z,8.42
2022-11-27T16:21:08.536Z,8.37
2022-11-27T16:23:36.316Z,8.54
2022-11-27T16:26:03.546Z,8.15
2022-11-27T16:28:31.077Z,8.47
2022-11-27T16:31:02.855Z,8.40
2022-11-27T16:33:30.937Z,8.68
2022-11-27T16:36:05.222Z,8.39
2022-11-27T16:38:31.762Z,8.67
2022-11-27T16:41:03.532Z,8.65
2022-11-27T16:43:34.707Z,8.29
2022-11-27T16:46:07.351Z,8.35
2022-11-27T16:48:35.683Z,7.94
2022-11-27T16:51:07.726Z,8.23
2022-11-27T16:53:38.764Z,8.44
2022-11-27T16:56:06.495Z,8.61
2022-11-27T16:58:37.889Z,8.55
2022-11-27T17:01:18.077Z,8.68
2022-11-27T17:03:44.719Z,8.66
2022-11-27T17:06:14.311Z,8.53
2022-11-27T17:08:43.491Z,8.49
2022-11-27T17:11:11.131Z,8.18
2022-11-27T17:13:38.020Z,8.43
2022-11-27T17:16:06.800Z,8.34
2022-11-27T17:18:33.463Z,8.57
2022-11-27T17:21:04.867Z,8.65
2022-11-27T17:23:31.467Z,8.58
2022-11-27T17:25:58.238Z,8.35
2022-11-27T17:28:24.839Z,8.14
2022-11-27T17:30:51.404Z,8.34
2022-11-27T17:33:17.933Z,8.43
2022-11-27T17:35:44.487Z,8.28
2022-11-27T17:38:11.200Z,8.49
2022-11-27T17:40:37.892Z,7.39
2022-11-27T17:43:04.546Z,7.63
2022-11-27T17:45:31.208Z,7.68
2022-11-27T17:48:00.123Z,8.02
2022-11-27T17:50:26.683Z,7.93
2022-11-27T17:52:53.509Z,8.28
2022-11-27T17:55:20.082Z,8.15
2022-11-27T17:57:46.615Z,8.45
2022-11-27T18:00:13.537Z,8.46
2022-11-27T18:02:40.111Z,8.28
2022-11-27T18:05:07.137Z,7.28
2022-11-27T18:07:33.780Z,6.89
2022-11-27T18:10:00.496Z,7.26
2022-11-27T18:12:27.068Z,7.88
2022-11-27T18:14:59.472Z,7.42
2022-11-27T18:17:28.559Z,7.34
2022-11-27T18:19:57.169Z,7.80
2022-11-27T18:22:24.215Z,7.64
2022-11-27T18:24:50.756Z,7.16
2022-11-27T18:27:17.813Z,7.55
2022-11-27T18:29:45.142Z,7.45
2022-11-27T18:32:13.293Z,7.53
2022-11-27T18:34:40.932Z,6.77
2022-11-27T18:37:07.581Z,7.51
2022-11-27T18:39:35.345Z,7.75
2022-11-27T18:42:03.305Z,7.88
2022-11-27T18:44:29.825Z,7.52
2022-11-27T18:46:56.468Z,7.88
2022-11-27T18:49:23.314Z,7.46
2022-11-27T18:51:51.890Z,7.72
2022-11-27T18:54:18.542Z,7.30
2022-11-27T18:56:45.109Z,6.97
2022-11-27T18:59:11.691Z,7.64
2022-11-27T19:01:42.209Z,7.50
2022-11-27T19:04:10.477Z,7.69
2022-11-27T19:06:38.832Z,7.76
2022-11-27T19:09:06.236Z,6.85
2022-11-27T19:11:34.029Z,7.19
2022-11-27T19:14:01.486Z,7.15
2022-11-27T19:16:31.796Z,7.01
2022-11-27T19:18:59.866Z,7.50
2022-11-27T19:21:29.011Z,7.95
2022-11-27T19:23:57.797Z,7.97
2022-11-27T19:26:27.476Z,8.02
2022-11-27T19:28:56.583Z,7.96
2022-11-27T19:31:24.262Z,7.90
2022-11-27T19:33:55.683Z,7.69
2022-11-27T19:36:23.133Z,7.79
2022-11-27T19:39:12.065Z,7.88
2022-11-27T19:41:38.614Z,7.82
2022-11-27T19:44:05.852Z,7.56
2022-11-27T19:46:37.579Z,7.69
2022-11-27T19:54:15.664Z,7.50
2022-11-27T19:56:43.182Z,7.81
2022-11-27T19:59:11.538Z,7.85
2022-11-27T20:01:40.179Z,8.13
2022-11-27T20:08:44.506Z,7.90
2022-11-27T20:13:52.479Z,6.91
2022-11-27T20:16:21.316Z,7.52
2022-11-27T20:18:48.204Z,7.51
2022-11-27T20:21:18.172Z,7.53
2022-11-27T20:48:10.529Z,7.80
2022-11-27T20:50:39.331Z,7.43
2022-11-27T20:53:06.391Z,7.38
2022-11-27T20:55:34.092Z,7.66
2022-11-27T20:58:00.683Z,7.57
2022-11-27T21:00:27.624Z,7.50
2022-11-27T21:02:54.319Z,7.14
2022-11-27T21:05:20.985Z,7.69
2022-11-27T21:07:47.668Z,7.02
2022-11-27T21:10:16.421Z,7.51
2022-11-27T21:12:43.288Z,7.31
2022-11-27T21:17:45.977Z,6.87
2022-11-27T21:20:13.081Z,7.41
2022-11-27T21:22:42.593Z,7.69
2022-11-27T21:25:09.155Z,7.84
2022-11-27T21:27:37.349Z,7.88
2022-11-27T21:30:47.065Z,7.91
2022-11-27T21:33:46.378Z,7.19
2022-11-27T21:36:13.675Z,7.79
2022-11-27T21:39:01.820Z,7.76
2022-11-27T21:41:29.654Z,8.00
2022-11-27T21:44:11.410Z,7.52
2022-11-27T21:46:38.339Z,7.30
2022-11-27T21:49:26.662Z,7.76
2022-11-27T21:51:53.779Z,7.70
2022-11-27T21:54:21.006Z,7.84
2022-11-27T21:56:51.659Z,7.85
2022-11-27T22:03:26.055Z,7.91
2022-11-27T22:06:07.545Z,7.83
2022-11-27T22:08:36.128Z,7.80
2022-11-27T22:11:07.598Z,8.05
2022-11-27T22:13:34.271Z,7.96
2022-11-27T22:16:01.119Z,7.94
2022-11-27T22:18:49.745Z,8.01
2022-11-27T22:21:17.305Z,7.80
2022-11-27T22:23:44.587Z,7.88
2022-11-27T22:26:14.936Z,7.83
2022-11-27T22:32:48.177Z,7.85
2022-11-27T22:35:14.863Z,7.90
2022-11-27T22:37:41.424Z,7.72
2022-11-27T22:40:08.324Z,7.88
2022-11-27T22:42:35.069Z,7.64
2022-11-27T22:45:01.754Z,7.68
2022-11-27T22:50:30.928Z,7.95
2022-11-27T22:52:58.387Z,7.72
2022-11-27T22:55:25.078Z,7.55
2022-11-27T23:19:34.370Z,8.01
2022-11-27T23:22:00.963Z,7.74
2022-11-27T23:24:27.639Z,7.93
2022-11-27T23:26:54.234Z,8.07
2022-11-27T23:29:20.797Z,8.04
2022-11-27T23:31:47.519Z,7.74
2022-11-27T23:34:33.803Z,7.44
2022-11-27T23:37:00.351Z,7.69
2022-11-27T23:39:27.105Z,7.66
2022-11-27T23:41:53.729Z,7.79
2022-11-27T23:48:25.044Z,7.20
2022-11-27T23:50:51.710Z,6.73
